createdAt,value
2023-01-19T00:03:00.537Z,3.96
2023-01-19T00:06:07.419Z,4.03
2023-01-19T00:09:10.310Z,3.96
2023-01-19T00:12:13.202Z,4.00
2023-01-19T00:15:15.743Z,3.96
2023-01-19T00:18:18.696Z,3.95
2023-01-19T00:21:22.301Z,3.96
2023-01-19T00:24:25.197Z,3.92
2023-01-19T00:27:29.385Z,3.88
2023-01-19T00:30:32.385Z,3.83
2023-01-19T00:33:34.979Z,3.93
2023-01-19T00:36:38.051Z,3.91
2023-01-19T00:39:40.721Z,3.81
2023-01-19T00:42:48.443Z,3.82
2023-01-19T00:45:51.493Z,3.78
2023-01-19T00:48:54.418Z,3.81
2023-01-19T00:51:57.222Z,3.77
2023-01-19T00:55:01.963Z,3.76
2023-01-19T00:58:04.612Z,3.77
2023-01-19T01:01:07.629Z,3.69
2023-01-19T01:04:12.231Z,3.64
2023-01-19T01:07:15.069Z,3.63
2023-01-19T01:10:26.836Z,3.58
2023-01-19T01:13:30.078Z,3.58
2023-01-19T01:16:32.894Z,3.47
2023-01-19T01:19:35.834Z,3.49
2023-01-19T01:22:39.254Z,3.39
2023-01-19T01:25:42.617Z,3.36
2023-01-19T01:28:45.281Z,3.40
2023-01-19T01:31:48.545Z,3.36
2023-01-19T01:34:51.105Z,3.34
2023-01-19T01:37:58.239Z,3.31
2023-01-19T01:41:00.862Z,3.29
2023-01-19T01:44:08.261Z,3.25
2023-01-19T01:47:11.179Z,3.28
2023-01-19T01:50:26.811Z,3.29
2023-01-19T01:53:32.171Z,3.30
2023-01-19T01:56:41.524Z,3.23
2023-01-19T01:59:48.325Z,3.17
2023-01-19T02:02:51.794Z,3.13
2023-01-19T02:05:59.942Z,3.11
2023-01-19T02:09:25.765Z,3.07
2023-01-19T02:12:47.546Z,3.07
2023-01-19T02:15:52.846Z,3.06
2023-01-19T02:18:57.168Z,3.02
2023-01-19T02:22:18.996Z,3.01
2023-01-19T02:25:22.140Z,2.96
2023-01-19T02:28:26.777Z,2.98
2023-01-19T02:31:32.030Z,3.00
2023-01-19T02:34:35.235Z,2.95
2023-01-19T02:37:40.453Z,2.96
2023-01-19T02:40:44.330Z,2.98
2023-01-19T02:43:49.159Z,3.02
2023-01-19T02:46:54.300Z,2.99
2023-01-19T02:49:58.608Z,2.95
2023-01-19T02:53:07.009Z,2.85
2023-01-19T02:56:18.982Z,2.82
2023-01-19T03:00:01.035Z,2.79
2023-01-19T03:03:43.799Z,2.74
2023-01-19T03:07:11.985Z,2.75
2023-01-19T03:10:28.886Z,2.74
2023-01-19T03:13:52.975Z,2.78
2023-01-19T03:17:00.804Z,2.78
2023-01-19T03:20:07.317Z,2.79
2023-01-19T03:23:12.526Z,2.80
2023-01-19T03:26:19.203Z,2.77
2023-01-19T03:29:24.544Z,2.76
2023-01-19T03:32:38.294Z,2.76
2023-01-19T03:35:45.956Z,2.72
2023-01-19T03:38:50.401Z,2.70
2023-01-19T03:41:58.033Z,2.73
2023-01-19T03:45:01.773Z,2.67
2023-01-19T03:48:06.118Z,2.71
2023-01-19T03:51:10.880Z,2.69
2023-01-19T03:54:13.759Z,2.66
2023-01-19T03:57:16.663Z,2.63
2023-01-19T04:00:19.695Z,2.58
2023-01-19T04:03:23.514Z,2.55
2023-01-19T04:06:26.984Z,2.54
2023-01-19T04:09:29.981Z,2.60
2023-01-19T04:12:32.969Z,2.58
2023-01-19T04:15:35.821Z,2.61
2023-01-19T04:18:38.379Z,2.59
2023-01-19T04:21:41.179Z,2.52
2023-01-19T04:24:43.828Z,2.45
2023-01-19T04:27:46.719Z,2.44
2023-01-19T04:30:52.660Z,2.41
2023-01-19T04:33:55.971Z,2.35
2023-01-19T04:36:58.566Z,2.34
2023-01-19T04:40:01.486Z,2.26
2023-01-19T04:43:04.314Z,2.25
2023-01-19T04:46:07.345Z,2.25
2023-01-19T04:49:10.285Z,2.22
2023-01-19T04:52:13.288Z,2.19
2023-01-19T04:55:15.946Z,2.15
2023-01-19T04:58:18.819Z,2.15
2023-01-19T05:01:21.658Z,2.09
2023-01-19T05:04:25.662Z,2.12
2023-01-19T05:07:28.161Z,2.12
2023-01-19T05:10:31.203Z,2.09
2023-01-19T05:13:33.763Z,2.12
2023-01-19T05:16:36.639Z,2.19
2023-01-19T05:19:39.224Z,2.18
2023-01-19T05:22:42.057Z,2.16
2023-01-19T05:25:44.837Z,2.23
2023-01-19T05:28:47.740Z,2.26
2023-01-19T05:31:50.391Z,2.28
2023-01-19T05:34:55.304Z,2.23
2023-01-19T05:37:57.885Z,2.22
2023-01-19T05:41:00.687Z,2.25
2023-01-19T05:44:03.522Z,2.39
2023-01-19T05:47:06.604Z,2.34
2023-01-19T05:50:09.747Z,2.32
2023-01-19T05:53:12.790Z,2.32
2023-01-19T05:56:15.381Z,2.30
2023-01-19T05:59:24.021Z,2.33
2023-01-19T06:02:30.074Z,2.41
2023-01-19T06:05:33.277Z,2.41
2023-01-19T06:08:36.077Z,2.42
2023-01-19T06:11:38.946Z,2.48
2023-01-19T06:14:41.481Z,2.49
2023-01-19T06:17:44.289Z,2.45
2023-01-19T06:20:46.839Z,2.46
2023-01-19T06:23:49.722Z,2.34
2023-01-19T06:26:52.257Z,2.31
2023-01-19T06:29:55.180Z,2.28
2023-01-19T06:32:57.905Z,2.27
2023-01-19T06:36:01.039Z,2.29
2023-01-19T06:39:05.994Z,2.38
2023-01-19T06:42:09.908Z,2.38
2023-01-19T06:45:12.489Z,2.54
2023-01-19T06:48:15.999Z,2.53
2023-01-19T06:51:18.571Z,2.60
2023-01-19T06:54:22.514Z,2.66
2023-01-19T06:57:25.961Z,2.62
2023-01-19T07:00:29.099Z,2.59
2023-01-19T07:03:32.509Z,2.66
2023-01-19T07:06:35.700Z,2.69
2023-01-19T07:09:38.291Z,2.71
2023-01-19T07:12:41.303Z,2.77
2023-01-19T07:15:44.165Z,2.75
2023-01-19T07:18:50.021Z,2.84
2023-01-19T07:21:52.600Z,2.82
2023-01-19T07:24:55.509Z,2.82
2023-01-19T07:28:01.653Z,2.88
2023-01-19T07:31:05.228Z,3.00
2023-01-19T07:34:07.804Z,3.07
2023-01-19T07:37:10.790Z,3.19
2023-01-19T07:40:13.703Z,3.07
2023-01-19T07:43:17.013Z,3.13
2023-01-19T07:46:19.647Z,3.14
2023-01-19T07:49:22.579Z,3.20
2023-01-19T07:52:25.456Z,3.19
2023-01-19T07:55:28.657Z,3.21
2023-01-19T07:58:31.293Z,3.28
2023-01-19T08:01:34.318Z,3.25
2023-01-19T08:04:37.302Z,3.21
2023-01-19T08:07:39.911Z,3.19
2023-01-19T08:10:42.874Z,3.27
2023-01-19T08:13:45.605Z,3.38
2023-01-19T08:16:48.873Z,3.34
2023-01-19T08:19:51.610Z,3.38
2023-01-19T08:23:03.112Z,3.42
2023-01-19T08:26:29.810Z,3.42
2023-01-19T08:29:33.688Z,3.55
2023-01-19T08:32:36.376Z,3.61
2023-01-19T08:35:42.890Z,3.63
2023-01-19T08:38:46.442Z,3.60
2023-01-19T08:41:52.494Z,3.63
2023-01-19T08:44:58.713Z,3.56
2023-01-19T08:48:02.297Z,3.49
2023-01-19T08:51:04.983Z,3.53
2023-01-19T08:54:07.882Z,3.44
2023-01-19T08:57:10.539Z,3.53
2023-01-19T09:00:14.157Z,3.43
2023-01-19T09:03:16.803Z,3.44
2023-01-19T09:06:19.720Z,3.43
2023-01-19T09:09:22.754Z,3.42
2023-01-19T09:12:25.924Z,3.35
2023-01-19T09:15:29.432Z,3.38
2023-01-19T09:18:32.490Z,3.43
2023-01-19T09:21:35.055Z,3.39
2023-01-19T09:24:38.002Z,3.43
2023-01-19T09:27:40.589Z,3.32
2023-01-19T09:30:44.342Z,3.37
2023-01-19T09:33:47.042Z,3.36
2023-01-19T09:36:50.018Z,3.36
2023-01-19T09:39:52.997Z,3.43
2023-01-19T09:43:04.640Z,3.51
2023-01-19T09:46:15.287Z,3.46
2023-01-19T09:49:30.616Z,3.41
2023-01-19T09:52:37.615Z,3.45
2023-01-19T09:55:41.966Z,3.38
2023-01-19T09:58:45.899Z,3.40
2023-01-19T10:02:16.665Z,3.28
2023-01-19T10:06:01.376Z,3.25
2023-01-19T10:09:49.430Z,3.06
2023-01-19T10:13:03.382Z,3.08
2023-01-19T10:16:14.970Z,3.08
2023-01-19T10:19:25.596Z,3.00
2023-01-19T10:22:28.836Z,2.88
2023-01-19T10:25:33.325Z,2.91
2023-01-19T10:28:37.804Z,2.80
2023-01-19T10:31:44.739Z,2.78
2023-01-19T10:34:49.202Z,2.60
2023-01-19T10:38:01.991Z,2.64
2023-01-19T10:41:11.974Z,2.67
2023-01-19T10:44:27.003Z,2.58
2023-01-19T10:47:37.168Z,2.50
2023-01-19T10:50:40.119Z,2.51
2023-01-19T10:53:59.965Z,2.45
2023-01-19T10:57:05.960Z,2.43
2023-01-19T11:00:37.903Z,2.45
2023-01-19T11:03:41.025Z,2.32
2023-01-19T11:06:43.620Z,2.38
2023-01-19T11:09:50.576Z,2.27
2023-01-19T11:12:55.870Z,2.31
2023-01-19T11:16:05.096Z,2.33
2023-01-19T11:19:19.779Z,2.41
2023-01-19T11:22:27.741Z,2.41
2023-01-19T11:25:32.779Z,2.33
2023-01-19T11:28:44.979Z,2.23
2023-01-19T11:31:48.139Z,2.31
2023-01-19T11:34:51.047Z,2.17
2023-01-19T11:38:21.024Z,2.11
2023-01-19T11:41:30.705Z,2.17
2023-01-19T11:44:38.733Z,2.15
2023-01-19T11:47:44.959Z,2.26
2023-01-19T11:50:49.359Z,2.26
2023-01-19T11:53:53.649Z,2.31
2023-01-19T11:56:59.539Z,2.46
2023-01-19T12:00:17.539Z,2.44
2023-01-19T12:03:31.755Z,2.46
2023-01-19T12:06:38.439Z,2.45
2023-01-19T12:09:45.595Z,2.51
2023-01-19T12:12:49.204Z,2.51
2023-01-19T12:16:07.460Z,2.47
2023-01-19T12:19:21.397Z,2.52
2023-01-19T12:22:28.479Z,2.65
2023-01-19T12:26:10.069Z,2.60
2023-01-19T12:29:18.147Z,2.56
2023-01-19T12:32:33.373Z,2.50
2023-01-19T12:35:57.054Z,2.52
2023-01-19T12:39:06.854Z,2.62
2023-01-19T12:42:18.907Z,2.53
2023-01-19T12:45:25.751Z,2.47
2023-01-19T12:48:32.237Z,2.45
2023-01-19T12:51:35.134Z,2.37
2023-01-19T12:54:41.847Z,2.57
2023-01-19T12:57:54.869Z,2.41
2023-01-19T13:01:21.062Z,2.47
2023-01-19T13:04:31.334Z,2.42
2023-01-19T13:08:02.257Z,2.52
2023-01-19T13:11:10.736Z,2.46
2023-01-19T13:14:29.285Z,2.61
2023-01-19T13:17:45.801Z,2.67
2023-01-19T13:20:54.645Z,2.74
2023-01-19T13:24:01.670Z,2.75
2023-01-19T13:27:05.166Z,2.73
2023-01-19T13:30:15.723Z,2.64
2023-01-19T13:33:25.724Z,2.60
2023-01-19T13:36:42.011Z,2.59
2023-01-19T13:39:48.979Z,2.67
2023-01-19T13:42:54.143Z,2.70
2023-01-19T13:45:57.142Z,2.69
2023-01-19T13:49:12.717Z,2.70
2023-01-19T13:52:23.777Z,2.65
2023-01-19T13:55:28.268Z,2.59
2023-01-19T13:58:32.050Z,2.60
2023-01-19T14:01:34.653Z,2.61
2023-01-19T14:04:37.957Z,2.57
2023-01-19T14:07:40.711Z,2.51
2023-01-19T14:11:00.110Z,2.40
2023-01-19T14:14:02.995Z,2.39
2023-01-19T14:17:21.706Z,2.32
2023-01-19T14:20:30.201Z,2.25
2023-01-19T14:23:42.057Z,2.17
2023-01-19T14:26:53.919Z,2.25
2023-01-19T14:30:32.610Z,2.12
2023-01-19T14:33:47.116Z,2.02
2023-01-19T14:36:51.718Z,1.98
2023-01-19T14:40:15.914Z,1.96
2023-01-19T14:43:22.009Z,2.03
2023-01-19T14:46:26.044Z,2.05
2023-01-19T14:49:36.045Z,1.98
2023-01-19T14:52:42.129Z,1.93
2023-01-19T14:55:55.456Z,1.92
2023-01-19T14:59:00.909Z,1.89
2023-01-19T15:02:09.873Z,1.91
2023-01-19T15:05:13.038Z,1.86
2023-01-19T15:08:24.983Z,1.88
2023-01-19T15:11:31.225Z,1.94
2023-01-19T15:14:34.161Z,1.98
2023-01-19T15:17:36.724Z,1.96
2023-01-19T15:20:39.755Z,1.97
2023-01-19T15:23:42.591Z,1.95
2023-01-19T15:26:45.809Z,2.00
2023-01-19T15:29:48.436Z,1.98
2023-01-19T15:32:51.300Z,1.94
2023-01-19T15:35:54.240Z,1.99
2023-01-19T15:38:57.297Z,1.95
2023-01-19T15:42:00.143Z,1.94
2023-01-19T15:45:03.125Z,1.97
2023-01-19T15:48:08.372Z,1.91
2023-01-19T15:51:16.818Z,1.88
2023-01-19T15:54:19.515Z,1.84
2023-01-19T15:57:22.359Z,1.84
2023-01-19T16:00:25.143Z,1.86
2023-01-19T16:03:28.212Z,1.91
2023-01-19T16:06:31.997Z,1.89
2023-01-19T16:09:40.351Z,1.90
2023-01-19T16:12:44.493Z,1.91
2023-01-19T16:15:47.336Z,1.91
2023-01-19T16:18:50.842Z,1.85
2023-01-19T16:21:53.718Z,1.81
2023-01-19T16:24:56.448Z,1.90
2023-01-19T16:27:59.365Z,1.92
2023-01-19T16:31:02.325Z,1.89
2023-01-19T16:34:05.352Z,1.92
2023-01-19T16:37:08.169Z,1.87
2023-01-19T16:40:12.220Z,1.89
2023-01-19T16:43:15.367Z,1.89
2023-01-19T16:46:21.186Z,1.93
2023-01-19T16:49:28.395Z,1.98
2023-01-19T16:52:31.576Z,1.92
2023-01-19T16:55:34.292Z,1.98
2023-01-19T16:58:38.489Z,1.95
2023-01-19T17:01:42.013Z,1.91
2023-01-19T17:04:44.897Z,1.92
2023-01-19T17:07:47.520Z,1.86
2023-01-19T17:10:51.044Z,1.87
2023-01-19T17:13:56.644Z,1.91
2023-01-19T17:17:02.323Z,1.87
2023-01-19T17:20:05.494Z,1.81
2023-01-19T17:23:08.495Z,1.96
2023-01-19T17:26:11.437Z,1.91
2023-01-19T17:29:15.181Z,1.97
2023-01-19T17:32:18.042Z,1.94
2023-01-19T17:35:20.952Z,1.91
2023-01-19T17:38:23.519Z,1.97
2023-01-19T17:41:28.949Z,1.95
2023-01-19T17:44:31.721Z,1.92
2023-01-19T17:47:34.706Z,1.92
2023-01-19T17:50:37.451Z,1.92
2023-01-19T17:53:42.049Z,1.85
2023-01-19T17:56:44.780Z,1.89
2023-01-19T17:59:47.869Z,1.88
2023-01-19T18:02:53.287Z,1.87
2023-01-19T18:05:56.513Z,1.82
2023-01-19T18:08:59.763Z,1.87
2023-01-19T18:12:02.696Z,1.95
2023-01-19T18:15:07.446Z,1.86
2023-01-19T18:18:10.561Z,1.84
2023-01-19T18:21:15.329Z,1.78
2023-01-19T18:24:18.471Z,1.76
2023-01-19T18:27:21.970Z,1.77
2023-01-19T18:30:25.313Z,1.72
2023-01-19T18:33:31.332Z,1.74
2023-01-19T18:36:34.915Z,1.79
2023-01-19T18:39:39.073Z,1.68
2023-01-19T18:42:42.836Z,1.69
2023-01-19T18:45:49.928Z,1.63
2023-01-19T18:48:54.123Z,1.64
2023-01-19T18:51:57.575Z,1.64
2023-01-19T18:55:00.787Z,1.60
2023-01-19T18:58:05.190Z,1.56
2023-01-19T19:01:24.703Z,1.56
2023-01-19T19:04:27.771Z,1.46
2023-01-19T19:07:30.597Z,1.47
2023-01-19T19:10:33.450Z,1.54
2023-01-19T19:13:37.961Z,1.50
2023-01-19T19:16:40.971Z,1.44
2023-01-19T19:19:44.171Z,1.51
2023-01-19T19:22:47.020Z,1.49
2023-01-19T19:25:50.234Z,1.52
2023-01-19T19:28:53.452Z,1.44
2023-01-19T19:31:56.931Z,1.49
2023-01-19T19:34:59.816Z,1.64
2023-01-19T19:38:03.431Z,1.51
2023-01-19T19:41:08.361Z,1.46
2023-01-19T19:44:12.819Z,1.48
2023-01-19T19:47:15.474Z,1.38
2023-01-19T19:50:19.038Z,1.49
2023-01-19T19:53:22.877Z,1.41
2023-01-19T19:56:28.547Z,1.46
2023-01-19T19:59:32.167Z,1.50
2023-01-19T20:02:35.663Z,1.50
2023-01-19T20:05:39.538Z,1.40
2023-01-19T20:08:42.420Z,1.42
2023-01-19T20:11:46.788Z,1.43
2023-01-19T20:14:49.551Z,1.43
2023-01-19T20:17:52.930Z,1.30
2023-01-19T20:20:56.276Z,1.35
2023-01-19T20:24:02.871Z,1.43
2023-01-19T20:27:05.570Z,1.40
2023-01-19T20:30:09.473Z,1.30
2023-01-19T20:33:12.320Z,1.33
2023-01-19T20:36:16.148Z,1.29
2023-01-19T20:39:19.390Z,1.29
2023-01-19T20:42:22.664Z,1.28
2023-01-19T20:45:26.294Z,1.19
2023-01-19T20:48:30.340Z,1.24
2023-01-19T20:51:34.974Z,1.13
2023-01-19T20:54:39.780Z,1.12
2023-01-19T20:57:43.097Z,1.10
2023-01-19T21:00:46.295Z,1.25
2023-01-19T21:03:49.290Z,1.20
2023-01-19T21:06:52.508Z,1.20
2023-01-19T21:09:55.229Z,1.29
2023-01-19T21:12:58.255Z,1.26
2023-01-19T21:16:01.540Z,1.28
2023-01-19T21:19:05.003Z,1.21
2023-01-19T21:22:07.958Z,1.16
2023-01-19T21:25:11.570Z,1.10
2023-01-19T21:28:14.382Z,1.23
2023-01-19T21:31:17.634Z,1.16
2023-01-19T21:34:20.318Z,1.24
2023-01-19T21:37:23.214Z,1.18
2023-01-19T21:40:25.799Z,1.19
2023-01-19T21:43:28.629Z,1.17
2023-01-19T21:46:33.049Z,1.21
2023-01-19T21:49:36.299Z,1.13
2023-01-19T21:52:41.659Z,1.03
2023-01-19T21:55:45.576Z,1.05
2023-01-19T21:58:48.389Z,1.13
2023-01-19T22:01:51.413Z,1.07
2023-01-19T22:04:54.253Z,1.03
2023-01-19T22:07:56.792Z,1.09
2023-01-19T22:11:08.220Z,1.21
2023-01-19T22:14:11.467Z,1.24
2023-01-19T22:17:14.304Z,1.18
2023-01-19T22:20:17.226Z,1.26
2023-01-19T22:23:20.219Z,1.30
2023-01-19T22:26:23.572Z,1.24
2023-01-19T22:29:27.272Z,1.17
2023-01-19T22:32:29.803Z,1.23
2023-01-19T22:35:33.158Z,1.30
2023-01-19T22:38:35.800Z,1.25
2023-01-19T22:41:42.439Z,1.22
2023-01-19T22:44:45.846Z,1.30
2023-01-19T22:47:48.789Z,1.21
2023-01-19T22:50:56.106Z,1.18
2023-01-19T22:53:59.776Z,1.19
2023-01-19T22:57:02.355Z,1.19
2023-01-19T23:00:08.586Z,1.04
2023-01-19T23:03:11.448Z,1.00
2023-01-19T23:06:22.835Z,1.05
2023-01-19T23:09:25.640Z,1.09
2023-01-19T23:12:28.542Z,1.10
2023-01-19T23:15:32.913Z,1.16
2023-01-19T23:18:35.854Z,1.09
2023-01-19T23:21:38.349Z,1.19
2023-01-19T23:24:41.189Z,1.15
2023-01-19T23:27:43.735Z,1.17
2023-01-19T23:30:46.652Z,1.16
2023-01-19T23:33:54.904Z,1.05
2023-01-19T23:36:57.691Z,1.11
2023-01-19T23:40:00.210Z,1.11
2023-01-19T23:43:03.077Z,1.03
2023-01-19T23:46:07.295Z,1.06
2023-01-19T23:49:10.312Z,1.00
2023-01-19T23:52:12.829Z,1.08
2023-01-19T23:55:16.740Z,1.06
2023-01-19T23:58:19.253Z,0.97
